sensor_id;sensor_type;location;lat;lon;timestamp;temperature;humidity
20594;DHT22;10455;48.732;10.266;2022-09-02T00:02:15;13.30;99.90
20594;DHT22;10455;48.732;10.266;2022-09-02T00:07:17;13.50;99.90
20594;DHT22;10455;48.732;10.266;2022-09-02T00:12:21;13.30;99.90
20594;DHT22;10455;48.732;10.266;2022-09-02T00:17:23;13.10;99.90
20594;DHT22;10455;48.732;10.266;2022-09-02T00:22:25;13.10;99.90
20594;DHT22;10455;48.732;10.266;2022-09-02T00:27:29;13.10;99.90
20594;DHT22;10455;48.732;10.266;2022-09-02T00:32:31;13.00;99.90
20594;DHT22;10455;48.732;10.266;2022-09-02T00:37:33;12.90;99.90
20594;DHT22;10455;48.732;10.266;2022-09-02T00:42:37;12.60;99.90
20594;DHT22;10455;48.732;10.266;2022-09-02T00:47:39;12.30;99.90
20594;DHT22;10455;48.732;10.266;2022-09-02T00:52:45;12.00;99.90
20594;DHT22;10455;48.732;10.266;2022-09-02T00:57:52;11.90;99.90
20594;DHT22;10455;48.732;10.266;2022-09-02T01:03:00;11.70;99.90
20594;DHT22;10455;48.732;10.266;2022-09-02T01:08:03;11.30;99.90
20594;DHT22;10455;48.732;10.266;2022-09-02T01:13:11;11.20;99.90
20594;DHT22;10455;48.732;10.266;2022-09-02T01:18:18;11.20;99.90
20594;DHT22;10455;48.732;10.266;2022-09-02T01:23:22;11.00;99.90
20594;DHT22;10455;48.732;10.266;2022-09-02T01:28:26;10.60;99.90
20594;DHT22;10455;48.732;10.266;2022-09-02T01:33:28;10.40;99.90
20594;DHT22;10455;48.732;10.266;2022-09-02T01:38:32;10.10;99.90
20594;DHT22;10455;48.732;10.266;2022-09-02T01:43:34;9.90;99.90
20594;DHT22;10455;48.732;10.266;2022-09-02T01:48:37;9.80;99.90
20594;DHT22;10455;48.732;10.266;2022-09-02T01:53:41;9.60;99.90
20594;DHT22;10455;48.732;10.266;2022-09-02T01:58:43;9.60;99.90
20594;DHT22;10455;48.732;10.266;2022-09-02T02:03:46;9.50;99.90
20594;DHT22;10455;48.732;10.266;2022-09-02T02:08:49;9.30;99.90
20594;DHT22;10455;48.732;10.266;2022-09-02T02:13:52;9.30;99.90
20594;DHT22;10455;48.732;10.266;2022-09-02T02:18:54;9.20;99.90
20594;DHT22;10455;48.732;10.266;2022-09-02T02:23:58;9.10;99.90
20594;DHT22;10455;48.732;10.266;2022-09-02T02:29:00;9.00;99.90
20594;DHT22;10455;48.732;10.266;2022-09-02T02:34:03;8.90;99.90
20594;DHT22;10455;48.732;10.266;2022-09-02T02:39:08;8.80;99.90
20594;DHT22;10455;48.732;10.266;2022-09-02T02:44:11;8.70;99.90
20594;DHT22;10455;48.732;10.266;2022-09-02T02:49:13;8.60;99.90
20594;DHT22;10455;48.732;10.266;2022-09-02T02:54:17;8.60;99.90
20594;DHT22;10455;48.732;10.266;2022-09-02T02:59:19;8.50;99.90
20594;DHT22;10455;48.732;10.266;2022-09-02T03:04:21;8.40;99.90
20594;DHT22;10455;48.732;10.266;2022-09-02T03:09:25;8.30;99.90
20594;DHT22;10455;48.732;10.266;2022-09-02T03:14:27;8.40;99.90
20594;DHT22;10455;48.732;10.266;2022-09-02T03:19:30;8.20;99.90
20594;DHT22;10455;48.732;10.266;2022-09-02T03:24:34;8.10;99.90
20594;DHT22;10455;48.732;10.266;2022-09-02T03:29:36;8.10;99.90
20594;DHT22;10455;48.732;10.266;2022-09-02T03:34:38;8.20;99.90
20594;DHT22;10455;48.732;10.266;2022-09-02T03:39:42;8.20;99.90
20594;DHT22;10455;48.732;10.266;2022-09-02T03:44:45;8.10;99.90
20594;DHT22;10455;48.732;10.266;2022-09-02T03:49:47;8.10;99.90
20594;DHT22;10455;48.732;10.266;2022-09-02T03:54:51;8.00;99.90
20594;DHT22;10455;48.732;10.266;2022-09-02T03:59:53;8.00;99.90
20594;DHT22;10455;48.732;10.266;2022-09-02T04:04:55;8.00;99.90
20594;DHT22;10455;48.732;10.266;2022-09-02T04:09:59;7.90;99.90
20594;DHT22;10455;48.732;10.266;2022-09-02T04:15:02;7.80;99.90
20594;DHT22;10455;48.732;10.266;2022-09-02T04:20:07;7.60;99.90
20594;DHT22;10455;48.732;10.266;2022-09-02T04:25:11;7.60;99.90
20594;DHT22;10455;48.732;10.266;2022-09-02T04:30:14;7.70;99.90
20594;DHT22;10455;48.732;10.266;2022-09-02T04:35:17;7.70;99.90
20594;DHT22;10455;48.732;10.266;2022-09-02T04:40:20;7.80;99.90
20594;DHT22;10455;48.732;10.266;2022-09-02T04:45:23;7.90;99.90
20594;DHT22;10455;48.732;10.266;2022-09-02T04:50:25;7.80;99.90
20594;DHT22;10455;48.732;10.266;2022-09-02T04:55:29;8.00;99.90
20594;DHT22;10455;48.732;10.266;2022-09-02T05:00:31;8.20;99.90
20594;DHT22;10455;48.732;10.266;2022-09-02T05:05:34;8.30;99.90
20594;DHT22;10455;48.732;10.266;2022-09-02T05:10:40;8.50;99.90
20594;DHT22;10455;48.732;10.266;2022-09-02T05:15:42;9.60;99.90
20594;DHT22;10455;48.732;10.266;2022-09-02T05:20:45;11.60;99.90
20594;DHT22;10455;48.732;10.266;2022-09-02T05:25:48;13.20;99.90
20594;DHT22;10455;48.732;10.266;2022-09-02T05:30:50;14.80;99.90
20594;DHT22;10455;48.732;10.266;2022-09-02T05:35:53;17.00;99.90
20594;DHT22;10455;48.732;10.266;2022-09-02T05:40:56;18.50;99.90
20594;DHT22;10455;48.732;10.266;2022-09-02T05:46:03;19.30;99.90
20594;DHT22;10455;48.732;10.266;2022-09-02T05:51:07;20.40;99.90
20594;DHT22;10455;48.732;10.266;2022-09-02T05:56:11;22.10;99.90
20594;DHT22;10455;48.732;10.266;2022-09-02T06:01:15;23.40;99.90
20594;DHT22;10455;48.732;10.266;2022-09-02T06:06:18;23.80;99.10
20594;DHT22;10455;48.732;10.266;2022-09-02T06:11:25;22.50;99.90
20594;DHT22;10455;48.732;10.266;2022-09-02T06:16:29;22.30;99.90
20594;DHT22;10455;48.732;10.266;2022-09-02T06:21:31;21.50;99.90
20594;DHT22;10455;48.732;10.266;2022-09-02T06:26:35;20.70;99.90
20594;DHT22;10455;48.732;10.266;2022-09-02T06:31:40;19.40;99.90
20594;DHT22;10455;48.732;10.266;2022-09-02T06:36:43;20.30;99.90
20594;DHT22;10455;48.732;10.266;2022-09-02T06:41:48;20.20;99.90
20594;DHT22;10455;48.732;10.266;2022-09-02T06:46:54;20.00;99.90
20594;DHT22;10455;48.732;10.266;2022-09-02T06:51:57;20.30;99.90
20594;DHT22;10455;48.732;10.266;2022-09-02T06:57:01;19.00;99.90
20594;DHT22;10455;48.732;10.266;2022-09-02T07:02:03;17.40;99.90
20594;DHT22;10455;48.732;10.266;2022-09-02T07:07:07;19.00;99.90
20594;DHT22;10455;48.732;10.266;2022-09-02T07:12:10;19.30;99.90
20594;DHT22;10455;48.732;10.266;2022-09-02T07:17:14;21.00;99.90
20594;DHT22;10455;48.732;10.266;2022-09-02T07:22:17;23.10;99.90
20594;DHT22;10455;48.732;10.266;2022-09-02T07:27:21;24.40;99.90
20594;DHT22;10455;48.732;10.266;2022-09-02T07:32:23;23.10;99.90
20594;DHT22;10455;48.732;10.266;2022-09-02T07:37:25;22.70;99.90
20594;DHT22;10455;48.732;10.266;2022-09-02T07:42:29;24.40;99.40
20594;DHT22;10455;48.732;10.266;2022-09-02T07:47:31;25.70;96.70
20594;DHT22;10455;48.732;10.266;2022-09-02T07:52:33;22.00;99.90
20594;DHT22;10455;48.732;10.266;2022-09-02T07:57:37;21.20;99.90
20594;DHT22;10455;48.732;10.266;2022-09-02T08:02:40;23.30;99.80
20594;DHT22;10455;48.732;10.266;2022-09-02T08:07:43;21.80;99.90
20594;DHT22;10455;48.732;10.266;2022-09-02T08:12:47;21.20;99.90
20594;DHT22;10455;48.732;10.266;2022-09-02T08:17:50;21.80;99.90
20594;DHT22;10455;48.732;10.266;2022-09-02T08:22:52;21.70;99.90
20594;DHT22;10455;48.732;10.266;2022-09-02T08:27:55;21.50;99.90
20594;DHT22;10455;48.732;10.266;2022-09-02T08:32:58;21.50;99.90
20594;DHT22;10455;48.732;10.266;2022-09-02T08:38:00;22.90;99.80
20594;DHT22;10455;48.732;10.266;2022-09-02T08:43:13;22.30;99.90
20594;DHT22;10455;48.732;10.266;2022-09-02T08:48:19;21.00;99.90
20594;DHT22;10455;48.732;10.266;2022-09-02T08:53:30;21.10;99.50
20594;DHT22;10455;48.732;10.266;2022-09-02T08:58:38;20.60;99.90
20594;DHT22;10455;48.732;10.266;2022-09-02T09:03:51;21.50;99.50
20594;DHT22;10455;48.732;10.266;2022-09-02T09:09:03;21.20;98.70
20594;DHT22;10455;48.732;10.266;2022-09-02T09:14:20;23.20;97.70
20594;DHT22;10455;48.732;10.266;2022-09-02T09:19:36;21.40;97.10
20594;DHT22;10455;48.732;10.266;2022-09-02T09:24:41;21.20;98.70
20594;DHT22;10455;48.732;10.266;2022-09-02T09:29:46;20.90;97.60
20594;DHT22;10455;48.732;10.266;2022-09-02T09:34:58;22.80;96.80
20594;DHT22;10455;48.732;10.266;2022-09-02T09:40:22;22.80;96.20
20594;DHT22;10455;48.732;10.266;2022-09-02T09:45:31;22.00;96.50
20594;DHT22;10455;48.732;10.266;2022-09-02T09:50:33;21.70;96.00
20594;DHT22;10455;48.732;10.266;2022-09-02T09:55:49;20.60;97.20
20594;DHT22;10455;48.732;10.266;2022-09-02T10:00:53;21.60;96.40
20594;DHT22;10455;48.732;10.266;2022-09-02T10:06:17;22.10;94.50
20594;DHT22;10455;48.732;10.266;2022-09-02T10:11:23;21.20;96.10
20594;DHT22;10455;48.732;10.266;2022-09-02T10:16:38;21.70;95.00
20594;DHT22;10455;48.732;10.266;2022-09-02T10:22:00;22.20;93.20
20594;DHT22;10455;48.732;10.266;2022-09-02T10:27:07;23.10;92.80
20594;DHT22;10455;48.732;10.266;2022-09-02T10:32:23;23.40;91.90
20594;DHT22;10455;48.732;10.266;2022-09-02T10:37:32;22.90;90.40
20594;DHT22;10455;48.732;10.266;2022-09-02T10:42:53;23.60;91.10
20594;DHT22;10455;48.732;10.266;2022-09-02T10:48:13;22.80;93.80
20594;DHT22;10455;48.732;10.266;2022-09-02T10:53:34;22.40;93.20
20594;DHT22;10455;48.732;10.266;2022-09-02T10:58:43;21.50;93.70
20594;DHT22;10455;48.732;10.266;2022-09-02T11:03:57;23.00;92.40
20594;DHT22;10455;48.732;10.266;2022-09-02T11:09:07;23.40;92.10
20594;DHT22;10455;48.732;10.266;2022-09-02T11:14:18;22.00;93.80
20594;DHT22;10455;48.732;10.266;2022-09-02T11:19:27;21.90;93.50
20594;DHT22;10455;48.732;10.266;2022-09-02T11:24:35;22.10;94.60
20594;DHT22;10455;48.732;10.266;2022-09-02T11:29:46;22.40;92.50
20594;DHT22;10455;48.732;10.266;2022-09-02T11:34:56;22.60;93.60
20594;DHT22;10455;48.732;10.266;2022-09-02T11:40:02;22.60;93.60
20594;DHT22;10455;48.732;10.266;2022-09-02T11:45:22;22.70;93.10
20594;DHT22;10455;48.732;10.266;2022-09-02T11:50:45;21.90;93.90
20594;DHT22;10455;48.732;10.266;2022-09-02T11:55:53;22.30;94.90
20594;DHT22;10455;48.732;10.266;2022-09-02T12:01:04;22.20;95.60
20594;DHT22;10455;48.732;10.266;2022-09-02T12:06:11;23.40;92.40
20594;DHT22;10455;48.732;10.266;2022-09-02T12:16:59;23.00;93.80
20594;DHT22;10455;48.732;10.266;2022-09-02T12:22:30;23.70;92.80
20594;DHT22;10455;48.732;10.266;2022-09-02T12:27:34;25.10;91.00
20594;DHT22;10455;48.732;10.266;2022-09-02T12:33:05;23.90;90.40
20594;DHT22;10455;48.732;10.266;2022-09-02T12:38:35;22.00;92.90
20594;DHT22;10455;48.732;10.266;2022-09-02T12:43:47;21.60;92.30
20594;DHT22;10455;48.732;10.266;2022-09-02T12:49:02;21.90;93.70
20594;DHT22;10455;48.732;10.266;2022-09-02T12:54:09;22.40;92.60
20594;DHT22;10455;48.732;10.266;2022-09-02T12:59:11;22.70;91.70
20594;DHT22;10455;48.732;10.266;2022-09-02T13:04:29;22.60;92.10
20594;DHT22;10455;48.732;10.266;2022-09-02T13:10:00;23.50;90.70
20594;DHT22;10455;48.732;10.266;2022-09-02T13:15:16;22.80;92.10
20594;DHT22;10455;48.732;10.266;2022-09-02T13:26:19;24.20;89.70
20594;DHT22;10455;48.732;10.266;2022-09-02T13:31:27;24.40;90.60
20594;DHT22;10455;48.732;10.266;2022-09-02T13:36:31;25.30;86.60
20594;DHT22;10455;48.732;10.266;2022-09-02T13:41:37;26.20;83.60
20594;DHT22;10455;48.732;10.266;2022-09-02T13:46:44;27.20;80.70
20594;DHT22;10455;48.732;10.266;2022-09-02T13:51:46;27.30;82.20
20594;DHT22;10455;48.732;10.266;2022-09-02T13:56:53;28.00;81.00
20594;DHT22;10455;48.732;10.266;2022-09-02T14:01:55;25.00;87.10
20594;DHT22;10455;48.732;10.266;2022-09-02T14:06:57;24.50;87.10
20594;DHT22;10455;48.732;10.266;2022-09-02T14:12:02;26.70;80.40
20594;DHT22;10455;48.732;10.266;2022-09-02T14:17:18;26.30;85.10
20594;DHT22;10455;48.732;10.266;2022-09-02T14:22:25;25.40;83.80
20594;DHT22;10455;48.732;10.266;2022-09-02T14:27:29;27.00;80.20
20594;DHT22;10455;48.732;10.266;2022-09-02T14:32:31;27.90;76.70
20594;DHT22;10455;48.732;10.266;2022-09-02T14:37:35;26.40;79.50
20594;DHT22;10455;48.732;10.266;2022-09-02T14:42:51;26.40;82.40
20594;DHT22;10455;48.732;10.266;2022-09-02T14:47:55;26.50;80.90
20594;DHT22;10455;48.732;10.266;2022-09-02T14:53:02;27.00;77.50
20594;DHT22;10455;48.732;10.266;2022-09-02T14:58:06;27.40;75.60
20594;DHT22;10455;48.732;10.266;2022-09-02T15:03:13;27.30;76.40
20594;DHT22;10455;48.732;10.266;2022-09-02T15:08:15;27.30;75.60
20594;DHT22;10455;48.732;10.266;2022-09-02T15:13:26;28.00;75.00
20594;DHT22;10455;48.732;10.266;2022-09-02T15:18:29;27.40;75.80
20594;DHT22;10455;48.732;10.266;2022-09-02T15:23:31;25.60;79.20
20594;DHT22;10455;48.732;10.266;2022-09-02T15:28:35;24.90;83.20
20594;DHT22;10455;48.732;10.266;2022-09-02T15:33:38;25.50;81.40
20594;DHT22;10455;48.732;10.266;2022-09-02T15:38:41;26.40;77.00
20594;DHT22;10455;48.732;10.266;2022-09-02T15:43:46;27.20;77.40
20594;DHT22;10455;48.732;10.266;2022-09-02T15:48:48;27.70;75.70
20594;DHT22;10455;48.732;10.266;2022-09-02T15:53:54;26.60;78.50
20594;DHT22;10455;48.732;10.266;2022-09-02T15:58:59;27.00;76.60
20594;DHT22;10455;48.732;10.266;2022-09-02T16:04:01;24.50;81.40
20594;DHT22;10455;48.732;10.266;2022-09-02T16:09:04;22.70;86.30
20594;DHT22;10455;48.732;10.266;2022-09-02T16:14:08;21.40;88.90
20594;DHT22;10455;48.732;10.266;2022-09-02T16:19:11;21.10;90.10
20594;DHT22;10455;48.732;10.266;2022-09-02T16:24:13;20.40;91.80
20594;DHT22;10455;48.732;10.266;2022-09-02T16:29:17;20.70;91.20
20594;DHT22;10455;48.732;10.266;2022-09-02T16:34:19;20.60;91.60
20594;DHT22;10455;48.732;10.266;2022-09-02T16:39:21;20.40;92.40
20594;DHT22;10455;48.732;10.266;2022-09-02T16:44:25;20.20;92.70
20594;DHT22;10455;48.732;10.266;2022-09-02T16:49:28;20.30;93.50
20594;DHT22;10455;48.732;10.266;2022-09-02T16:54:30;20.00;93.00
20594;DHT22;10455;48.732;10.266;2022-09-02T16:59:34;20.00;93.60
20594;DHT22;10455;48.732;10.266;2022-09-02T17:04:36;19.90;93.70
20594;DHT22;10455;48.732;10.266;2022-09-02T17:09:38;19.60;93.60
20594;DHT22;10455;48.732;10.266;2022-09-02T17:14:41;19.50;94.70
20594;DHT22;10455;48.732;10.266;2022-09-02T17:19:44;19.30;96.00
20594;DHT22;10455;48.732;10.266;2022-09-02T17:24:46;18.90;96.50
20594;DHT22;10455;48.732;10.266;2022-09-02T17:29:49;18.80;96.60
20594;DHT22;10455;48.732;10.266;2022-09-02T17:34:52;18.80;96.20
20594;DHT22;10455;48.732;10.266;2022-09-02T17:39:54;18.60;96.50
20594;DHT22;10455;48.732;10.266;2022-09-02T17:44:57;18.40;97.30
20594;DHT22;10455;48.732;10.266;2022-09-02T17:50:00;18.20;97.90
20594;DHT22;10455;48.732;10.266;2022-09-02T17:55:03;17.90;97.40
20594;DHT22;10455;48.732;10.266;2022-09-02T18:00:09;17.60;98.90
20594;DHT22;10455;48.732;10.266;2022-09-02T18:05:16;17.10;99.90
20594;DHT22;10455;48.732;10.266;2022-09-02T18:10:20;16.80;99.90
20594;DHT22;10455;48.732;10.266;2022-09-02T18:15:24;16.50;99.90
20594;DHT22;10455;48.732;10.266;2022-09-02T18:20:37;16.20;99.90
20594;DHT22;10455;48.732;10.266;2022-09-02T18:25:46;16.00;99.90
20594;DHT22;10455;48.732;10.266;2022-09-02T18:31:00;16.00;99.90
20594;DHT22;10455;48.732;10.266;2022-09-02T18:36:10;15.80;99.90
20594;DHT22;10455;48.732;10.266;2022-09-02T18:41:29;15.60;99.90
20594;DHT22;10455;48.732;10.266;2022-09-02T18:46:46;15.30;99.90
20594;DHT22;10455;48.732;10.266;2022-09-02T18:51:53;15.30;99.90
20594;DHT22;10455;48.732;10.266;2022-09-02T18:56:58;15.30;99.90
20594;DHT22;10455;48.732;10.266;2022-09-02T19:02:12;15.10;99.90
20594;DHT22;10455;48.732;10.266;2022-09-02T19:07:18;15.10;99.90
20594;DHT22;10455;48.732;10.266;2022-09-02T19:12:39;15.00;99.90
20594;DHT22;10455;48.732;10.266;2022-09-02T19:17:43;15.00;99.90
20594;DHT22;10455;48.732;10.266;2022-09-02T19:22:48;15.30;99.90
20594;DHT22;10455;48.732;10.266;2022-09-02T19:27:52;15.80;99.90
20594;DHT22;10455;48.732;10.266;2022-09-02T19:32:59;15.80;99.90
20594;DHT22;10455;48.732;10.266;2022-09-02T19:38:01;15.60;99.90
20594;DHT22;10455;48.732;10.266;2022-09-02T19:43:04;15.60;99.90
20594;DHT22;10455;48.732;10.266;2022-09-02T19:48:09;15.60;99.90
20594;DHT22;10455;48.732;10.266;2022-09-02T19:53:16;15.80;99.90
20594;DHT22;10455;48.732;10.266;2022-09-02T19:58:18;15.80;99.90
20594;DHT22;10455;48.732;10.266;2022-09-02T20:03:22;15.70;99.90
20594;DHT22;10455;48.732;10.266;2022-09-02T20:08:26;15.90;99.90
20594;DHT22;10455;48.732;10.266;2022-09-02T20:13:31;15.90;99.90
20594;DHT22;10455;48.732;10.266;2022-09-02T20:18:39;16.20;99.90
20594;DHT22;10455;48.732;10.266;2022-09-02T20:23:49;16.30;99.90
20594;DHT22;10455;48.732;10.266;2022-09-02T20:29:02;16.30;99.90
20594;DHT22;10455;48.732;10.266;2022-09-02T20:34:14;16.30;99.90
20594;DHT22;10455;48.732;10.266;2022-09-02T20:39:35;16.20;99.90
20594;DHT22;10455;48.732;10.266;2022-09-02T20:44:49;16.00;99.90
20594;DHT22;10455;48.732;10.266;2022-09-02T20:50:02;16.00;99.90
20594;DHT22;10455;48.732;10.266;2022-09-02T20:55:15;15.90;99.90
20594;DHT22;10455;48.732;10.266;2022-09-02T21:00:20;15.90;99.90
20594;DHT22;10455;48.732;10.266;2022-09-02T21:05:27;15.70;99.90
20594;DHT22;10455;48.732;10.266;2022-09-02T21:10:32;15.60;99.90
20594;DHT22;10455;48.732;10.266;2022-09-02T21:15:39;15.70;99.90
20594;DHT22;10455;48.732;10.266;2022-09-02T21:20:50;15.50;99.90
20594;DHT22;10455;48.732;10.266;2022-09-02T21:25:56;15.50;99.90
20594;DHT22;10455;48.732;10.266;2022-09-02T21:31:02;15.40;99.90
20594;DHT22;10455;48.732;10.266;2022-09-02T21:36:10;15.30;99.90
20594;DHT22;10455;48.732;10.266;2022-09-02T21:41:28;15.20;99.90
20594;DHT22;10455;48.732;10.266;2022-09-02T21:46:38;15.10;99.90
20594;DHT22;10455;48.732;10.266;2022-09-02T21:51:47;15.10;99.90
20594;DHT22;10455;48.732;10.266;2022-09-02T21:57:02;15.30;99.90
20594;DHT22;10455;48.732;10.266;2022-09-02T22:02:15;15.00;99.90
20594;DHT22;10455;48.732;10.266;2022-09-02T22:07:27;14.90;99.90
20594;DHT22;10455;48.732;10.266;2022-09-02T22:12:35;15.10;99.90
20594;DHT22;10455;48.732;10.266;2022-09-02T22:17:43;15.20;99.90
20594;DHT22;10455;48.732;10.266;2022-09-02T22:22:50;15.20;99.90
20594;DHT22;10455;48.732;10.266;2022-09-02T22:27:59;15.00;99.90
20594;DHT22;10455;48.732;10.266;2022-09-02T22:33:06;15.00;99.90
20594;DHT22;10455;48.732;10.266;2022-09-02T22:38:15;15.30;99.90
20594;DHT22;10455;48.732;10.266;2022-09-02T22:43:29;15.60;99.90
20594;DHT22;10455;48.732;10.266;2022-09-02T22:53:57;15.60;99.90
20594;DHT22;10455;48.732;10.266;2022-09-02T22:59:10;15.20;99.90
20594;DHT22;10455;48.732;10.266;2022-09-02T23:04:31;15.00;99.90
20594;DHT22;10455;48.732;10.266;2022-09-02T23:09:40;14.90;99.90
20594;DHT22;10455;48.732;10.266;2022-09-02T23:14:49;14.90;99.90
20594;DHT22;10455;48.732;10.266;2022-09-02T23:20:09;14.90;99.90
20594;DHT22;10455;48.732;10.266;2022-09-02T23:25:31;15.00;99.90
20594;DHT22;10455;48.732;10.266;2022-09-02T23:30:46;14.90;99.90
20594;DHT22;10455;48.732;10.266;2022-09-02T23:36:00;14.90;99.90
20594;DHT22;10455;48.732;10.266;2022-09-02T23:41:13;15.00;99.90
20594;DHT22;10455;48.732;10.266;2022-09-02T23:46:29;15.20;99.90
20594;DHT22;10455;48.732;10.266;2022-09-02T23:51:38;15.10;99.90
20594;DHT22;10455;48.732;10.266;2022-09-02T23:56:56;15.30;99.90
